Terminal Aerodrome Forecast
Issued by NWS

Home | Current Version | Previous Version | Text Only | Print | Product List | Glossary On
Versions: 1 2 3 4 5 6 7 8 9 10 11 12 13 14
000
FTUS45 KFGZ 180858 AAA
TAFSEZ
TAF AMD
KSEZ 180858Z 1809/1906 03013KT P6SM SCT250
     FM181630 VRB05KT P6SM FEW120 SCT250
     FM190100 VRB03KT P6SM SCT100 BKN120=

USA.gov is the U.S. government's official web portal to all federal, state and local government web resources and services.